Time;durP1;ratioP1;P1;durP2;ratioP2;P2;SDS_P1;SDS_P2;PMS_P1;PMS_P2;Temp;Humidity;BMP_temperature;BMP_pressure;BME280_temperature;BME280_humidity;BME280_pressure;Samples;Min_cycle;Max_cycle;Signal;HPM_P1;HPM_P2
2020/12/29 00:00:12;;;;;;;30.45;26.60;;;;;;;;;;5015192;28;20455;-83
2020/12/29 00:02:38;;;;;;;31.40;27.25;;;;;;;;;;5013638;28;20390;-81
2020/12/29 00:05:05;;;;;;;28.95;25.77;;;;;;;;;;5015103;28;20467;-82
2020/12/29 00:07:30;;;;;;;30.75;27.02;;;;;;;;;;5014071;28;20395;-84
2020/12/29 00:09:56;;;;;;;34.15;29.17;;;;;;;;;;5012998;28;20378;-81
2020/12/29 00:12:22;;;;;;;33.33;29.23;;;;;;;;;;5015142;28;20372;-80
2020/12/29 00:14:48;;;;;;;31.65;27.80;;;;;;;;;;5015260;28;20382;-77
2020/12/29 00:17:14;;;;;;;34.22;27.60;;;;;;;;;;5010285;28;21026;-79
2020/12/29 00:19:40;;;;;;;31.92;27.85;;;;;;;;;;4993900;28;20425;-79
2020/12/29 00:22:06;;;;;;;34.70;29.45;;;;;;;;;;4995968;28;20366;-79
2020/12/29 00:24:39;;;;;;;35.50;29.67;;;;;;;;;;4984647;28;20381;-79
2020/12/29 00:27:05;;;;;;;31.30;27.75;;;;;;;;;;4993610;28;20400;-79
2020/12/29 00:29:32;;;;;;;30.30;26.90;;;;;;;;;;4995108;28;20765;-78
2020/12/29 00:31:58;;;;;;;33.00;28.27;;;;;;;;;;4988557;28;20377;-78
2020/12/29 00:34:24;;;;;;;36.63;29.27;;;;;;;;;;4988878;28;20384;-80
2020/12/29 00:36:52;;;;;;;31.15;27.77;;;;;;;;;;4979660;28;20798;-78
2020/12/29 00:39:19;;;;;;;34.35;28.98;;;;;;;;;;4988651;28;20411;-78
2020/12/29 00:41:50;;;;;;;34.03;30.00;;;;;;;;;;4986881;28;20390;-80
2020/12/29 00:44:16;;;;;;;38.50;31.35;;;;;;;;;;4985855;28;20908;-81
2020/12/29 00:46:42;;;;;;;37.78;30.98;;;;;;;;;;4983927;28;20928;-78
2020/12/29 00:49:08;;;;;;;33.03;28.88;;;;;;;;;;4993075;28;20377;-82
2020/12/29 00:51:34;;;;;;;35.17;30.17;;;;;;;;;;4990841;28;20961;-80
2020/12/29 00:54:01;;;;;;;35.28;29.67;;;;;;;;;;4985566;28;20375;-79
2020/12/29 00:56:27;;;;;;;35.42;29.77;;;;;;;;;;4978327;28;20459;-80
2020/12/29 00:58:54;;;;;;;35.72;29.55;;;;;;;;;;4985883;28;20727;-79
2020/12/29 01:01:20;;;;;;;34.63;29.75;;;;;;;;;;4991155;28;20439;-83
2020/12/29 01:03:46;;;;;;;35.72;30.55;;;;;;;;;;4986637;28;20371;-79
2020/12/29 01:06:12;;;;;;;35.78;28.95;;;;;;;;;;4983451;28;20777;-78
2020/12/29 01:08:38;;;;;;;36.33;30.67;;;;;;;;;;4975382;28;20396;-85
2020/12/29 01:11:04;;;;;;;38.00;31.40;;;;;;;;;;4995491;28;20385;-84
2020/12/29 01:13:30;;;;;;;37.22;30.60;;;;;;;;;;4993619;28;20852;-80
2020/12/29 01:15:56;;;;;;;41.70;34.17;;;;;;;;;;4987857;28;20397;-78
2020/12/29 01:18:22;;;;;;;38.38;31.92;;;;;;;;;;4988298;28;20742;-81
2020/12/29 01:20:49;;;;;;;40.22;32.85;;;;;;;;;;5003746;28;20371;-82
2020/12/29 01:23:15;;;;;;;36.78;31.50;;;;;;;;;;5011554;28;20364;-83
2020/12/29 01:25:42;;;;;;;39.00;31.43;;;;;;;;;;4994294;28;20483;-79
2020/12/29 01:28:09;;;;;;;40.38;33.30;;;;;;;;;;4993259;28;20459;-79
2020/12/29 01:30:35;;;;;;;39.33;33.63;;;;;;;;;;4994758;28;20379;-79
2020/12/29 01:33:01;;;;;;;38.42;31.65;;;;;;;;;;5012195;28;20929;-79
2020/12/29 01:35:27;;;;;;;36.20;29.90;;;;;;;;;;4996286;28;20464;-79
2020/12/29 01:37:53;;;;;;;39.10;32.77;;;;;;;;;;4992986;28;20380;-80
2020/12/29 01:40:20;;;;;;;40.15;34.25;;;;;;;;;;4992501;28;20393;-79
2020/12/29 01:42:46;;;;;;;42.00;34.00;;;;;;;;;;4994171;28;20361;-79
2020/12/29 01:45:13;;;;;;;42.10;34.65;;;;;;;;;;4992822;28;20455;-79
2020/12/29 01:47:40;;;;;;;44.05;35.42;;;;;;;;;;4992884;28;20924;-79
2020/12/29 01:50:10;;;;;;;42.67;35.50;;;;;;;;;;5006530;28;20379;-79
2020/12/29 01:52:37;;;;;;;40.63;33.85;;;;;;;;;;5012389;28;20418;-79
2020/12/29 01:55:04;;;;;;;42.75;34.88;;;;;;;;;;5012305;28;20869;-79
2020/12/29 01:57:31;;;;;;;42.10;35.67;;;;;;;;;;5013671;28;20371;-80
2020/12/29 01:59:57;;;;;;;45.60;36.88;;;;;;;;;;5013213;28;20425;-79
2020/12/29 02:02:23;;;;;;;46.58;36.17;;;;;;;;;;5013495;28;20363;-79
2020/12/29 02:04:49;;;;;;;43.67;36.27;;;;;;;;;;5012825;28;20397;-79
2020/12/29 02:07:16;;;;;;;48.45;38.63;;;;;;;;;;5012544;28;20398;-78
2020/12/29 02:09:43;;;;;;;48.57;38.93;;;;;;;;;;5013139;28;20399;-80
2020/12/29 02:12:25;;;;;;;47.45;38.95;;;;;;;;;;5013188;28;20430;-80
2020/12/29 02:14:51;;;;;;;43.28;36.25;;;;;;;;;;5011948;28;20387;-79
2020/12/29 02:17:17;;;;;;;45.03;37.45;;;;;;;;;;5011707;28;20474;-80
2020/12/29 02:19:44;;;;;;;46.63;39.67;;;;;;;;;;5002411;28;20452;-80
2020/12/29 02:22:10;;;;;;;49.50;39.17;;;;;;;;;;4993148;28;20369;-80
2020/12/29 02:24:36;;;;;;;47.13;38.70;;;;;;;;;;4992230;28;20365;-79
2020/12/29 02:27:05;;;;;;;49.13;39.65;;;;;;;;;;4992515;28;20735;-79
2020/12/29 02:29:33;;;;;;;49.80;39.53;;;;;;;;;;4999057;28;20386;-79
2020/12/29 02:31:59;;;;;;;46.53;38.75;;;;;;;;;;5011387;28;20379;-79
2020/12/29 02:34:26;;;;;;;50.08;39.85;;;;;;;;;;5013126;28;20395;-81
2020/12/29 02:36:52;;;;;;;49.92;40.83;;;;;;;;;;4994094;28;20376;-79
2020/12/29 02:39:18;;;;;;;44.60;37.53;;;;;;;;;;4992787;28;20369;-78
2020/12/29 02:41:44;;;;;;;49.05;39.42;;;;;;;;;;4993017;28;20756;-79
2020/12/29 02:44:16;;;;;;;46.50;38.47;;;;;;;;;;4992883;28;20381;-80
2020/12/29 02:46:42;;;;;;;40.20;35.33;;;;;;;;;;4991739;28;20403;-79
2020/12/29 02:49:08;;;;;;;45.13;37.53;;;;;;;;;;4992598;28;20369;-79
2020/12/29 02:51:34;;;;;;;44.75;36.83;;;;;;;;;;4991872;28;20724;-79
2020/12/29 02:54:00;;;;;;;41.55;36.00;;;;;;;;;;4992465;28;20361;-79
2020/12/29 02:56:26;;;;;;;45.73;37.67;;;;;;;;;;4992957;28;20940;-80
2020/12/29 02:58:52;;;;;;;44.80;36.95;;;;;;;;;;4992918;28;20451;-79
2020/12/29 03:01:18;;;;;;;43.25;36.75;;;;;;;;;;4992806;28;20464;-79
2020/12/29 03:03:44;;;;;;;42.53;35.03;;;;;;;;;;4992035;28;20936;-79
2020/12/29 03:06:10;;;;;;;42.92;35.78;;;;;;;;;;5006200;28;20482;-79
2020/12/29 03:08:36;;;;;;;48.20;38.93;;;;;;;;;;5009254;28;20371;-79
2020/12/29 03:11:03;;;;;;;43.55;36.78;;;;;;;;;;4992090;28;20376;-81
2020/12/29 03:13:29;;;;;;;43.95;37.65;;;;;;;;;;4991149;28;20365;-79
2020/12/29 03:15:55;;;;;;;41.00;35.50;;;;;;;;;;4991624;28;20507;-79
2020/12/29 03:18:21;;;;;;;40.17;35.20;;;;;;;;;;4994287;28;20859;-79
2020/12/29 03:20:47;;;;;;;44.47;37.08;;;;;;;;;;5006403;28;20371;-79
2020/12/29 03:23:13;;;;;;;46.28;38.83;;;;;;;;;;5016165;28;20830;-79
2020/12/29 03:25:39;;;;;;;46.45;39.22;;;;;;;;;;5011870;28;20385;-78
2020/12/29 03:28:05;;;;;;;43.58;37.53;;;;;;;;;;5016076;28;20444;-79
2020/12/29 03:30:31;;;;;;;43.58;37.55;;;;;;;;;;5014615;28;20371;-79
2020/12/29 03:32:57;;;;;;;42.83;36.63;;;;;;;;;;5014173;28;20390;-78
2020/12/29 03:35:23;;;;;;;44.80;37.40;;;;;;;;;;5007742;28;20425;-79
2020/12/29 03:37:49;;;;;;;46.72;39.35;;;;;;;;;;5016073;28;20363;-79
2020/12/29 03:40:15;;;;;;;44.42;37.42;;;;;;;;;;5006282;28;20710;-79
2020/12/29 03:42:41;;;;;;;43.25;36.83;;;;;;;;;;5015901;28;20691;-79
2020/12/29 03:45:07;;;;;;;48.03;38.60;;;;;;;;;;5014337;28;20530;-79
2020/12/29 03:47:33;;;;;;;40.05;34.83;;;;;;;;;;5015670;28;20398;-79
2020/12/29 03:49:58;;;;;;;41.83;36.20;;;;;;;;;;5006230;28;20369;-78
2020/12/29 03:52:24;;;;;;;45.95;38.92;;;;;;;;;;5008804;28;20436;-78
2020/12/29 03:54:50;;;;;;;47.35;40.10;;;;;;;;;;5007167;28;20376;-80
2020/12/29 03:57:16;;;;;;;44.40;36.93;;;;;;;;;;5007953;28;20474;-79
2020/12/29 03:59:42;;;;;;;40.53;34.92;;;;;;;;;;5003595;28;20506;-80
2020/12/29 04:02:09;;;;;;;43.70;36.85;;;;;;;;;;4993326;28;20385;-80
2020/12/29 04:04:37;;;;;;;45.60;37.92;;;;;;;;;;5000259;28;20461;-80
2020/12/29 04:07:03;;;;;;;44.77;37.43;;;;;;;;;;5006923;28;20483;-80
2020/12/29 04:09:30;;;;;;;44.30;36.28;;;;;;;;;;5011340;28;20379;-80
2020/12/29 04:11:56;;;;;;;47.22;38.58;;;;;;;;;;5012747;28;20447;-80
2020/12/29 04:14:22;;;;;;;47.40;38.85;;;;;;;;;;5007545;28;20373;-80
2020/12/29 04:16:48;;;;;;;49.50;40.10;;;;;;;;;;5014944;28;20364;-79
2020/12/29 04:19:14;;;;;;;48.50;39.42;;;;;;;;;;5014017;28;20942;-79
2020/12/29 04:21:40;;;;;;;47.90;39.97;;;;;;;;;;5005050;28;20379;-80
2020/12/29 04:24:06;;;;;;;44.10;37.33;;;;;;;;;;4995213;28;20716;-79
2020/12/29 04:26:34;;;;;;;48.03;38.55;;;;;;;;;;4995264;28;20755;-80
2020/12/29 04:29:00;;;;;;;45.57;38.27;;;;;;;;;;4995529;28;20387;-80
2020/12/29 04:31:26;;;;;;;47.75;37.40;;;;;;;;;;4995810;28;20400;-79
2020/12/29 04:33:52;;;;;;;46.78;38.65;;;;;;;;;;4993221;28;20380;-79
2020/12/29 04:36:18;;;;;;;45.60;38.53;;;;;;;;;;4990824;28;20375;-79
2020/12/29 04:38:44;;;;;;;49.30;39.77;;;;;;;;;;4974348;28;20854;-78
2020/12/29 04:41:10;;;;;;;48.78;38.78;;;;;;;;;;5004144;28;20367;-79
2020/12/29 04:43:36;;;;;;;47.03;39.00;;;;;;;;;;5011329;28;20372;-79
2020/12/29 04:46:03;;;;;;;47.75;38.00;;;;;;;;;;5011260;28;20382;-77
2020/12/29 04:48:29;;;;;;;48.37;39.30;;;;;;;;;;5013087;28;20372;-79
2020/12/29 04:51:01;;;;;;;47.25;38.42;;;;;;;;;;5013968;28;20364;-79
2020/12/29 04:53:30;;;;;;;48.80;39.50;;;;;;;;;;5014261;28;20371;-79
2020/12/29 04:55:58;;;;;;;50.80;40.67;;;;;;;;;;4995160;28;20361;-78
2020/12/29 04:58:24;;;;;;;47.53;38.35;;;;;;;;;;4993366;28;20380;-79
2020/12/29 05:00:51;;;;;;;49.92;39.58;;;;;;;;;;4993123;28;20381;-79
2020/12/29 05:03:17;;;;;;;47.42;38.42;;;;;;;;;;4992767;28;20381;-79
2020/12/29 05:05:44;;;;;;;51.20;41.37;;;;;;;;;;5012952;28;20375;-79
2020/12/29 05:08:10;;;;;;;45.95;36.88;;;;;;;;;;5014034;28;20441;-79
2020/12/29 05:10:45;;;;;;;45.20;38.53;;;;;;;;;;4995350;28;20381;-79
2020/12/29 05:13:11;;;;;;;48.55;39.38;;;;;;;;;;4994204;28;20824;-79
2020/12/29 05:15:37;;;;;;;47.15;39.25;;;;;;;;;;5001115;28;20894;-80
2020/12/29 05:18:04;;;;;;;52.23;41.87;;;;;;;;;;4993957;28;20463;-80
2020/12/29 05:20:35;;;;;;;49.33;39.63;;;;;;;;;;4991958;28;20860;-80
2020/12/29 05:23:01;;;;;;;52.40;41.17;;;;;;;;;;4992814;28;20923;-79
2020/12/29 05:25:27;;;;;;;53.92;42.53;;;;;;;;;;4995205;28;20465;-79
2020/12/29 05:27:54;;;;;;;49.65;40.83;;;;;;;;;;4974550;28;20522;-79
2020/12/29 05:30:20;;;;;;;50.50;41.17;;;;;;;;;;5005951;28;20762;-79
2020/12/29 05:32:46;;;;;;;53.13;43.47;;;;;;;;;;5011700;28;20731;-84
2020/12/29 05:35:13;;;;;;;53.35;43.55;;;;;;;;;;5010057;28;20388;-80
2020/12/29 05:37:39;;;;;;;54.42;44.03;;;;;;;;;;5013569;28;20374;-80
2020/12/29 05:40:25;;;;;;;58.58;45.33;;;;;;;;;;5012679;28;20466;-80
2020/12/29 05:42:54;;;;;;;61.03;47.70;;;;;;;;;;4993366;28;20456;-81
2020/12/29 05:45:20;;;;;;;55.33;43.92;;;;;;;;;;4987233;28;20381;-80
2020/12/29 05:47:52;;;;;;;57.60;45.70;;;;;;;;;;4991781;28;20793;-80
2020/12/29 05:50:19;;;;;;;59.08;47.92;;;;;;;;;;4997902;28;20725;-80
2020/12/29 05:52:46;;;;;;;59.85;47.30;;;;;;;;;;5011294;28;20375;-80
2020/12/29 05:55:13;;;;;;;60.35;46.58;;;;;;;;;;4997417;28;20871;-79
2020/12/29 05:57:40;;;;;;;58.20;47.35;;;;;;;;;;5010451;28;20489;-79
2020/12/29 06:00:06;;;;;;;57.63;46.22;;;;;;;;;;5005597;28;20365;-80
2020/12/29 06:02:49;;;;;;;61.90;48.08;;;;;;;;;;5107622;27;20839;-79
2020/12/29 06:05:15;;;;;;;61.03;48.38;;;;;;;;;;5101484;28;20420;-79
2020/12/29 06:07:42;;;;;;;62.30;48.08;;;;;;;;;;5090387;28;20360;-79
2020/12/29 06:10:09;;;;;;;60.85;48.55;;;;;;;;;;5090289;28;20993;-81
2020/12/29 06:12:42;;;;;;;63.05;49.00;;;;;;;;;;5070854;28;20449;-78
2020/12/29 06:15:09;;;;;;;64.05;49.60;;;;;;;;;;5070187;28;20854;-81
2020/12/29 06:17:43;;;;;;;62.92;48.35;;;;;;;;;;5088423;28;20407;-79
2020/12/29 06:20:15;;;;;;;62.58;48.10;;;;;;;;;;5098910;28;20377;-79
2020/12/29 06:22:45;;;;;;;71.43;51.58;;;;;;;;;;5088818;28;20949;-78
2020/12/29 06:25:16;;;;;;;71.45;52.72;;;;;;;;;;5080342;28;20380;-79
2020/12/29 06:27:45;;;;;;;71.70;53.53;;;;;;;;;;5066163;28;20363;-80
2020/12/29 06:30:12;;;;;;;78.97;55.77;;;;;;;;;;5095691;28;20879;-79
2020/12/29 06:32:40;;;;;;;68.30;52.90;;;;;;;;;;5065620;28;21186;-77
2020/12/29 06:35:06;;;;;;;73.78;54.40;;;;;;;;;;5076710;28;21175;-78
2020/12/29 06:37:37;;;;;;;73.35;53.97;;;;;;;;;;5108393;28;20826;-78
2020/12/29 06:40:04;;;;;;;72.75;54.08;;;;;;;;;;5103460;28;20368;-77
2020/12/29 06:42:31;;;;;;;75.63;55.47;;;;;;;;;;5072738;28;20506;-78
2020/12/29 06:44:57;;;;;;;76.68;54.75;;;;;;;;;;5080199;28;20424;-79
2020/12/29 06:47:24;;;;;;;74.32;53.00;;;;;;;;;;5074057;28;20385;-79
2020/12/29 06:49:51;;;;;;;69.10;51.22;;;;;;;;;;5075960;28;20493;-77
2020/12/29 06:52:26;;;;;;;77.55;54.00;;;;;;;;;;5108424;28;20424;-78
2020/12/29 06:54:52;;;;;;;66.35;51.10;;;;;;;;;;5101683;28;21067;-78
2020/12/29 06:57:39;;;;;;;72.43;52.33;;;;;;;;;;5108133;28;20402;-77
2020/12/29 07:00:11;;;;;;;69.03;51.80;;;;;;;;;;5064234;28;20372;-78
2020/12/29 07:02:38;;;;;;;74.53;53.92;;;;;;;;;;5105044;28;20427;-78
2020/12/29 07:05:16;;;;;;;68.25;51.42;;;;;;;;;;5078464;28;20716;-78
2020/12/29 07:07:51;;;;;;;73.20;53.28;;;;;;;;;;5069275;28;20361;-78
2020/12/29 07:10:18;;;;;;;70.00;51.47;;;;;;;;;;5068842;28;20771;-78
2020/12/29 07:12:48;;;;;;;71.93;52.38;;;;;;;;;;5081482;28;20833;-78
2020/12/29 07:15:15;;;;;;;75.37;53.37;;;;;;;;;;5079519;28;20366;-78
2020/12/29 07:17:52;;;;;;;70.85;50.38;;;;;;;;;;5092404;28;20372;-78
2020/12/29 07:20:19;;;;;;;68.57;50.95;;;;;;;;;;5081377;28;20362;-78
2020/12/29 07:22:53;;;;;;;73.20;51.90;;;;;;;;;;5092489;28;20411;-77
2020/12/29 07:25:20;;;;;;;70.22;50.65;;;;;;;;;;5088240;28;20777;-77
2020/12/29 07:27:49;;;;;;;74.70;55.03;;;;;;;;;;5056749;28;20366;-76
2020/12/29 07:30:15;;;;;;;78.43;55.25;;;;;;;;;;5064310;28;20395;-79
2020/12/29 07:32:42;;;;;;;81.13;57.08;;;;;;;;;;5056654;28;20373;-78
2020/12/29 07:35:08;;;;;;;78.72;56.85;;;;;;;;;;5074917;28;20389;-78
2020/12/29 07:37:34;;;;;;;77.55;57.10;;;;;;;;;;5072309;28;20372;-78
2020/12/29 07:40:00;;;;;;;79.28;56.92;;;;;;;;;;5066468;28;20370;-78
2020/12/29 07:42:26;;;;;;;72.28;53.88;;;;;;;;;;5089039;28;20789;-78
2020/12/29 07:44:52;;;;;;;80.83;57.13;;;;;;;;;;5064358;28;20646;-77
2020/12/29 07:47:18;;;;;;;77.97;55.92;;;;;;;;;;5087877;28;20364;-77
2020/12/29 07:49:45;;;;;;;71.72;53.63;;;;;;;;;;5067753;28;20479;-78
2020/12/29 07:52:21;;;;;;;72.85;53.42;;;;;;;;;;5078403;28;20358;-78
2020/12/29 07:54:47;;;;;;;84.68;58.88;;;;;;;;;;5060253;28;20387;-77
2020/12/29 07:57:13;;;;;;;78.20;54.72;;;;;;;;;;5092963;28;20827;-80
2020/12/29 07:59:39;;;;;;;74.57;54.80;;;;;;;;;;5090047;28;20371;-78
2020/12/29 08:02:08;;;;;;;80.60;56.90;;;;;;;;;;5074773;28;20397;-81
2020/12/29 08:04:34;;;;;;;72.28;53.55;;;;;;;;;;5090579;28;20371;-79
2020/12/29 08:07:06;;;;;;;72.32;52.38;;;;;;;;;;5054792;28;20845;-78
2020/12/29 08:09:44;;;;;;;73.30;54.03;;;;;;;;;;5061497;28;20376;-78
2020/12/29 08:12:10;;;;;;;76.05;53.97;;;;;;;;;;5055386;28;20419;-82
2020/12/29 08:14:40;;;;;;;69.00;50.53;;;;;;;;;;5063234;28;20370;-81
2020/12/29 08:17:06;;;;;;;71.90;51.00;;;;;;;;;;5054432;28;20374;-84
2020/12/29 08:19:32;;;;;;;64.85;48.97;;;;;;;;;;5053732;28;20868;-81
2020/12/29 08:22:03;;;;;;;63.03;46.33;;;;;;;;;;5066610;28;20398;-80
2020/12/29 08:24:30;;;;;;;66.90;49.15;;;;;;;;;;5055196;28;20362;-80
2020/12/29 08:26:59;;;;;;;64.25;46.72;;;;;;;;;;5073656;28;20355;-79
2020/12/29 08:29:25;;;;;;;68.28;48.78;;;;;;;;;;5058543;28;20369;-80
2020/12/29 08:32:27;;;;;;;67.45;50.88;;;;;;;;;;5061727;28;20368;-79
2020/12/29 08:34:53;;;;;;;67.82;49.50;;;;;;;;;;4980599;28;20749;-77
2020/12/29 08:37:23;;;;;;;61.88;46.90;;;;;;;;;;5049284;28;20378;-78
2020/12/29 08:39:55;;;;;;;60.50;46.65;;;;;;;;;;5077979;28;20472;-77
2020/12/29 08:42:22;;;;;;;70.28;52.10;;;;;;;;;;5085585;28;20479;-77
2020/12/29 08:44:48;;;;;;;67.30;51.47;;;;;;;;;;5058775;28;20426;-77
2020/12/29 08:47:14;;;;;;;60.78;46.28;;;;;;;;;;5054207;28;20764;-76
2020/12/29 08:49:41;;;;;;;58.65;45.88;;;;;;;;;;5069379;28;20367;-79
2020/12/29 08:52:07;;;;;;;54.85;44.00;;;;;;;;;;5046163;28;20383;-77
2020/12/29 08:54:35;;;;;;;56.90;44.58;;;;;;;;;;5046057;28;20428;-81
2020/12/29 08:57:01;;;;;;;54.97;43.95;;;;;;;;;;5052484;28;20374;-77
2020/12/29 08:59:34;;;;;;;56.20;43.57;;;;;;;;;;5043252;28;20430;-77
2020/12/29 09:02:00;;;;;;;59.42;46.08;;;;;;;;;;5053814;28;20398;-78
2020/12/29 09:04:26;;;;;;;58.45;45.78;;;;;;;;;;5047500;28;20496;-78
2020/12/29 09:06:55;;;;;;;57.97;45.10;;;;;;;;;;5051163;28;20413;-78
2020/12/29 09:09:21;;;;;;;56.83;45.07;;;;;;;;;;5058046;28;20378;-80
2020/12/29 09:11:47;;;;;;;52.53;41.17;;;;;;;;;;5043580;28;20860;-78
2020/12/29 09:14:13;;;;;;;56.67;43.78;;;;;;;;;;5051933;28;20372;-78
2020/12/29 09:16:39;;;;;;;54.38;43.25;;;;;;;;;;5056880;28;20879;-77
2020/12/29 09:19:15;;;;;;;51.55;41.28;;;;;;;;;;5052228;28;20388;-78
2020/12/29 09:21:40;;;;;;;51.38;41.83;;;;;;;;;;5082571;28;20429;-76
2020/12/29 09:24:06;;;;;;;51.55;41.38;;;;;;;;;;5050615;28;20382;-76
2020/12/29 09:26:47;;;;;;;50.10;40.58;;;;;;;;;;5058437;28;20425;-78
2020/12/29 09:29:18;;;;;;;46.63;37.42;;;;;;;;;;5050921;28;20366;-78
2020/12/29 09:31:52;;;;;;;44.53;36.90;;;;;;;;;;5070348;28;20378;-81
2020/12/29 09:34:18;;;;;;;43.20;36.38;;;;;;;;;;5071612;28;20777;-78
2020/12/29 09:36:44;;;;;;;45.40;36.65;;;;;;;;;;5041075;28;20736;-77
2020/12/29 09:39:10;;;;;;;46.58;37.47;;;;;;;;;;5043436;28;20372;-78
2020/12/29 09:41:36;;;;;;;43.25;35.25;;;;;;;;;;5054761;28;20406;-78
2020/12/29 09:44:04;;;;;;;43.83;35.77;;;;;;;;;;5063001;28;20374;-77
2020/12/29 09:46:39;;;;;;;40.33;33.63;;;;;;;;;;5062211;28;20462;-77
2020/12/29 09:49:06;;;;;;;39.53;34.38;;;;;;;;;;5087037;28;20461;-77
2020/12/29 09:51:32;;;;;;;40.95;34.70;;;;;;;;;;5074286;28;20464;-78
2020/12/29 09:53:58;;;;;;;40.17;33.47;;;;;;;;;;5063565;28;20413;-75
2020/12/29 09:56:25;;;;;;;41.10;35.05;;;;;;;;;;5063723;28;20459;-78
2020/12/29 09:58:51;;;;;;;38.70;33.67;;;;;;;;;;5053406;28;20426;-77
2020/12/29 10:01:17;;;;;;;37.03;31.77;;;;;;;;;;5063085;28;20413;-77
2020/12/29 10:03:43;;;;;;;35.00;30.40;;;;;;;;;;5066288;28;20369;-81
2020/12/29 10:06:09;;;;;;;37.28;31.92;;;;;;;;;;5048320;28;20372;-78
2020/12/29 10:08:37;;;;;;;37.90;30.92;;;;;;;;;;5053679;28;20425;-78
2020/12/29 10:11:03;;;;;;;35.33;30.80;;;;;;;;;;5059382;28;20451;-80
2020/12/29 10:13:29;;;;;;;32.20;27.88;;;;;;;;;;5057666;28;20366;-79
2020/12/29 10:15:55;;;;;;;34.03;30.08;;;;;;;;;;5067233;28;20430;-81
2020/12/29 10:18:21;;;;;;;37.13;30.90;;;;;;;;;;5048873;28;20384;-80
2020/12/29 10:20:47;;;;;;;36.22;31.30;;;;;;;;;;5068877;28;20455;-77
2020/12/29 10:23:13;;;;;;;35.35;29.75;;;;;;;;;;5062634;28;20779;-76
2020/12/29 10:25:39;;;;;;;33.72;30.00;;;;;;;;;;5058446;28;20375;-77
2020/12/29 10:28:05;;;;;;;33.45;29.83;;;;;;;;;;5073342;28;20748;-78
2020/12/29 10:30:31;;;;;;;31.23;27.73;;;;;;;;;;5069664;28;20457;-77
2020/12/29 10:32:57;;;;;;;32.03;28.50;;;;;;;;;;5070202;28;20401;-78
2020/12/29 10:35:23;;;;;;;34.97;30.42;;;;;;;;;;5063721;28;20403;-80
2020/12/29 10:37:49;;;;;;;32.38;28.88;;;;;;;;;;5078169;28;20374;-78
2020/12/29 10:40:15;;;;;;;33.40;28.73;;;;;;;;;;5061445;28;20375;-78
2020/12/29 10:42:41;;;;;;;30.60;27.27;;;;;;;;;;5052697;28;20394;-80
2020/12/29 10:45:07;;;;;;;29.70;26.47;;;;;;;;;;5069763;28;20379;-81
2020/12/29 10:47:33;;;;;;;29.65;26.17;;;;;;;;;;5066611;28;20370;-80
2020/12/29 10:50:00;;;;;;;27.67;24.73;;;;;;;;;;5073478;28;20453;-81
2020/12/29 10:52:26;;;;;;;27.10;24.17;;;;;;;;;;5053749;28;20441;-82
2020/12/29 10:54:55;;;;;;;28.77;25.70;;;;;;;;;;5060747;28;20910;-79
2020/12/29 10:57:21;;;;;;;30.17;26.98;;;;;;;;;;5053930;28;20409;-80
2020/12/29 10:59:48;;;;;;;29.02;25.60;;;;;;;;;;5058265;28;20374;-88
2020/12/29 11:02:15;;;;;;;27.25;24.42;;;;;;;;;;5060653;28;20390;-87
2020/12/29 11:04:41;;;;;;;25.23;22.52;;;;;;;;;;5076299;28;20358;-80
2020/12/29 11:07:07;;;;;;;25.40;22.70;;;;;;;;;;5074318;28;20374;-82
2020/12/29 11:09:33;;;;;;;23.90;21.50;;;;;;;;;;5074753;28;20720;-82
2020/12/29 11:11:59;;;;;;;22.55;20.25;;;;;;;;;;5074572;28;20765;-80
2020/12/29 11:14:25;;;;;;;23.50;21.10;;;;;;;;;;5074005;28;20362;-82
2020/12/29 11:16:51;;;;;;;25.02;22.30;;;;;;;;;;5056530;28;20472;-82
2020/12/29 11:19:17;;;;;;;23.35;20.85;;;;;;;;;;5056123;28;20402;-79
2020/12/29 11:21:46;;;;;;;23.00;20.30;;;;;;;;;;5051118;28;20518;-80
2020/12/29 11:24:12;;;;;;;23.23;20.65;;;;;;;;;;5061138;28;20370;-79
2020/12/29 11:26:38;;;;;;;23.58;20.98;;;;;;;;;;5052087;28;20771;-80
2020/12/29 11:29:06;;;;;;;22.65;20.25;;;;;;;;;;5072827;28;20865;-81
2020/12/29 11:31:37;;;;;;;21.85;19.52;;;;;;;;;;5047970;28;20398;-80
2020/12/29 11:34:05;;;;;;;21.58;19.38;;;;;;;;;;5071005;28;20366;-82
2020/12/29 11:36:31;;;;;;;21.00;18.88;;;;;;;;;;5072578;28;20398;-79
2020/12/29 11:38:57;;;;;;;21.05;18.88;;;;;;;;;;5043732;28;20868;-88
2020/12/29 11:41:23;;;;;;;21.63;19.33;;;;;;;;;;5070450;28;20893;-80
2020/12/29 11:43:49;;;;;;;22.98;20.38;;;;;;;;;;5057719;28;20357;-82
2020/12/29 11:46:15;;;;;;;22.35;20.00;;;;;;;;;;5056285;28;20358;-79
2020/12/29 11:48:41;;;;;;;21.05;18.85;;;;;;;;;;5055658;28;20362;-80
2020/12/29 11:51:10;;;;;;;20.90;18.70;;;;;;;;;;5073800;28;20748;-81
2020/12/29 11:53:36;;;;;;;21.73;19.43;;;;;;;;;;5054799;28;20362;-80
2020/12/29 11:56:04;;;;;;;22.17;19.08;;;;;;;;;;5056133;28;20856;-79
2020/12/29 11:58:30;;;;;;;21.42;19.23;;;;;;;;;;5037228;28;20876;-77
2020/12/29 12:00:56;;;;;;;21.58;19.42;;;;;;;;;;5073210;28;20534;-78
2020/12/29 12:03:22;;;;;;;21.75;19.42;;;;;;;;;;5070884;28;20370;-81
2020/12/29 12:05:49;;;;;;;20.60;18.50;;;;;;;;;;5069298;28;20372;-81
2020/12/29 12:08:16;;;;;;;21.00;18.83;;;;;;;;;;5062761;28;20868;-78
2020/12/29 12:10:42;;;;;;;21.83;19.53;;;;;;;;;;5066919;28;20376;-80
2020/12/29 12:13:08;;;;;;;21.52;19.33;;;;;;;;;;5066271;28;20389;-79
2020/12/29 12:15:34;;;;;;;21.10;18.92;;;;;;;;;;5051479;28;20882;-79
2020/12/29 12:18:01;;;;;;;22.85;19.77;;;;;;;;;;5053810;28;20358;-80
2020/12/29 12:20:27;;;;;;;21.50;19.30;;;;;;;;;;5057959;28;20445;-83
2020/12/29 12:22:53;;;;;;;21.23;19.08;;;;;;;;;;5061839;28;20453;-84
2020/12/29 12:25:20;;;;;;;20.63;18.52;;;;;;;;;;5052640;28;20385;-85
2020/12/29 12:27:46;;;;;;;22.80;20.40;;;;;;;;;;5073457;28;20457;-83
2020/12/29 12:30:12;;;;;;;21.55;19.25;;;;;;;;;;5069337;28;20392;-83
2020/12/29 12:32:38;;;;;;;20.55;18.45;;;;;;;;;;5056096;28;20457;-87
2020/12/29 12:35:04;;;;;;;20.70;18.63;;;;;;;;;;5073583;28;20377;-81
2020/12/29 12:37:30;;;;;;;20.85;18.63;;;;;;;;;;5055408;28;20378;-86
2020/12/29 12:39:55;;;;;;;20.88;18.77;;;;;;;;;;5055411;28;20421;-80
2020/12/29 12:42:21;;;;;;;20.10;18.00;;;;;;;;;;5055375;28;20884;-85
2020/12/29 12:44:47;;;;;;;20.88;18.60;;;;;;;;;;5055249;28;20378;-86
2020/12/29 12:47:13;;;;;;;22.13;19.35;;;;;;;;;;5055514;28;20401;-85
2020/12/29 12:50:04;;;;;;;18.67;16.77;;;;;;;;;;5071814;28;20358;-88
2020/12/29 12:55:44;;;;;;;21.70;19.30;;;;;;;;;;5053462;28;20362;-84
2020/12/29 12:58:10;;;;;;;21.17;18.58;;;;;;;;;;5035533;28;20424;-88
2020/12/29 13:00:36;;;;;;;20.50;18.40;;;;;;;;;;5053034;28;20356;-82
2020/12/29 13:03:04;;;;;;;18.00;16.17;;;;;;;;;;5053016;28;20415;-83
2020/12/29 13:05:31;;;;;;;18.40;16.50;;;;;;;;;;5034761;28;20384;-83
2020/12/29 13:11:06;;;;;;;18.15;16.35;;;;;;;;;;5052529;28;20398;-80
2020/12/29 13:16:37;;;;;;;20.53;18.17;;;;;;;;;;5052713;28;20355;-83
2020/12/29 13:19:03;;;;;;;21.15;18.38;;;;;;;;;;5035128;28;20384;-82
2020/12/29 13:21:30;;;;;;;19.65;17.63;;;;;;;;;;5035066;28;20474;-85
2020/12/29 13:23:56;;;;;;;19.15;17.25;;;;;;;;;;5052497;28;20364;-81
2020/12/29 13:26:23;;;;;;;20.33;18.23;;;;;;;;;;5034760;28;20363;-84
2020/12/29 13:28:49;;;;;;;19.25;17.27;;;;;;;;;;5034662;28;20360;-86
2020/12/29 13:34:19;;;;;;;18.00;16.20;;;;;;;;;;5052315;28;20347;-86
2020/12/29 13:39:48;;;;;;;21.55;19.25;;;;;;;;;;5051828;28;20389;-88
2020/12/29 13:45:19;;;;;;;21.67;19.43;;;;;;;;;;5053325;28;20351;-82
2020/12/29 13:47:45;;;;;;;18.65;16.75;;;;;;;;;;5034809;28;20489;-83
2020/12/29 13:53:15;;;;;;;21.73;18.83;;;;;;;;;;5052066;28;20447;-80
2020/12/29 13:55:48;;;;;;;18.50;16.67;;;;;;;;;;5033285;28;20380;-83
2020/12/29 13:58:14;;;;;;;23.88;21.45;;;;;;;;;;5033973;28;20415;-88
2020/12/29 14:00:41;;;;;;;24.40;21.83;;;;;;;;;;5034021;28;20428;-83
2020/12/29 14:03:07;;;;;;;23.27;20.77;;;;;;;;;;5033733;28;20395;-83
2020/12/29 14:05:37;;;;;;;21.58;19.33;;;;;;;;;;5033592;28;20485;-86
2020/12/29 14:08:03;;;;;;;17.02;15.32;;;;;;;;;;5050479;28;20448;-86
2020/12/29 14:10:30;;;;;;;16.88;15.18;;;;;;;;;;5063042;28;20911;-84
2020/12/29 14:12:56;;;;;;;16.00;14.40;;;;;;;;;;5052228;28;20857;-85
2020/12/29 14:15:23;;;;;;;17.13;15.32;;;;;;;;;;5052134;28;20867;-85
2020/12/29 14:17:49;;;;;;;15.88;14.27;;;;;;;;;;5062583;28;20385;-84
2020/12/29 14:20:16;;;;;;;15.57;14.03;;;;;;;;;;5051339;28;20737;-85
2020/12/29 14:22:42;;;;;;;15.32;13.63;;;;;;;;;;5059221;28;20441;-84
2020/12/29 14:25:23;;;;;;;16.50;14.82;;;;;;;;;;5078184;28;20376;-83
2020/12/29 14:27:49;;;;;;;16.05;14.45;;;;;;;;;;5060296;28;20370;-84
2020/12/29 14:30:16;;;;;;;16.52;14.65;;;;;;;;;;5055833;28;21180;-87
2020/12/29 14:33:00;;;;;;;18.55;15.93;;;;;;;;;;5054503;28;20431;-88
2020/12/29 14:35:26;;;;;;;18.33;16.45;;;;;;;;;;5047594;28;21020;-80
2020/12/29 14:37:52;;;;;;;17.92;16.08;;;;;;;;;;5043399;28;20381;-81